Time;durP1;ratioP1;P1;durP2;ratioP2;P2;SDS_P1;SDS_P2;PMS_P1;PMS_P2;Temp;Humidity;BMP_temperature;BMP_pressure;BME280_temperature;BME280_humidity;BME280_pressure;Samples;Min_cycle;Max_cycle;Signal;HPM_P1;HPM_P2
2021/10/20 00:00:35;;;;;;;4.80;4.40;;;12.30;99.90;;;;;;5012848;28;20286;-68
2021/10/20 00:03:01;;;;;;;5.27;4.87;;;12.30;99.90;;;;;;5012388;28;20587;-68
2021/10/20 00:05:26;;;;;;;5.07;4.57;;;12.20;99.90;;;;;;5012664;28;20178;-68
2021/10/20 00:07:52;;;;;;;5.77;4.70;;;12.20;99.90;;;;;;5012237;28;20175;-68
2021/10/20 00:10:20;;;;;;;5.20;4.70;;;12.20;99.90;;;;;;5012563;28;20201;-68
2021/10/20 00:12:46;;;;;;;5.83;5.33;;;12.20;99.90;;;;;;5012307;28;20430;-68
2021/10/20 00:15:14;;;;;;;4.93;4.53;;;12.20;99.90;;;;;;5012489;28;20955;-68
2021/10/20 00:17:39;;;;;;;4.73;4.33;;;12.30;99.90;;;;;;5012009;28;20859;-68
2021/10/20 00:20:10;;;;;;;4.43;4.00;;;12.30;99.90;;;;;;5012561;28;20495;-68
2021/10/20 00:22:37;;;;;;;7.70;4.97;;;12.30;99.90;;;;;;5012282;28;20179;-68
2021/10/20 00:25:04;;;;;;;4.90;4.50;;;12.20;99.90;;;;;;5012370;28;20549;-68
2021/10/20 00:27:29;;;;;;;7.40;4.43;;;12.20;99.90;;;;;;5011867;28;20513;-68
2021/10/20 00:29:55;;;;;;;5.17;4.67;;;12.20;99.90;;;;;;5011916;28;20588;-68
2021/10/20 00:32:21;;;;;;;5.77;5.13;;;12.20;99.90;;;;;;5012255;28;20179;-68
2021/10/20 00:34:47;;;;;;;6.07;4.57;;;12.20;99.90;;;;;;5012076;28;20614;-68
2021/10/20 00:37:12;;;;;;;4.67;4.27;;;12.20;99.90;;;;;;5012048;28;20434;-68
2021/10/20 00:39:38;;;;;;;4.23;3.83;;;12.10;99.90;;;;;;5011789;28;20205;-68
2021/10/20 00:42:04;;;;;;;5.40;4.03;;;12.00;99.90;;;;;;5012177;28;20202;-68
2021/10/20 00:44:43;;;;;;;4.80;4.37;;;12.00;99.90;;;;;;5012120;28;20210;-68
2021/10/20 00:47:09;;;;;;;5.40;4.10;;;12.00;99.90;;;;;;5011880;28;20437;-68
2021/10/20 00:49:34;;;;;;;4.10;3.60;;;12.00;99.90;;;;;;5011722;28;20476;-68
2021/10/20 00:51:59;;;;;;;4.93;3.37;;;12.00;99.90;;;;;;5011944;28;20244;-68
2021/10/20 00:54:27;;;;;;;4.17;3.77;;;12.10;99.90;;;;;;5011943;28;20230;-68
2021/10/20 00:56:53;;;;;;;5.30;3.93;;;12.10;99.90;;;;;;5012012;28;20644;-68
2021/10/20 00:59:18;;;;;;;3.97;3.57;;;12.20;99.90;;;;;;5011511;28;20491;-68
2021/10/20 01:01:44;;;;;;;4.90;3.30;;;12.10;99.90;;;;;;5011917;28;20179;-68
2021/10/20 01:04:09;;;;;;;5.30;4.03;;;12.20;99.90;;;;;;5011876;28;20214;-68
2021/10/20 01:06:36;;;;;;;3.77;3.40;;;12.10;99.90;;;;;;5011813;28;20178;-68
2021/10/20 01:09:02;;;;;;;4.20;3.80;;;12.10;99.90;;;;;;5011495;28;20186;-68
2021/10/20 01:11:28;;;;;;;7.03;4.10;;;12.00;99.90;;;;;;5011697;28;20599;-68
2021/10/20 01:13:54;;;;;;;4.93;4.37;;;12.00;99.90;;;;;;5011686;28;21030;-68
2021/10/20 01:16:19;;;;;;;4.07;3.67;;;12.00;99.90;;;;;;5011804;28;20560;-68
2021/10/20 01:18:45;;;;;;;4.50;4.17;;;11.90;99.90;;;;;;5011468;28;20217;-68
2021/10/20 01:21:20;;;;;;;4.73;4.07;;;11.80;99.90;;;;;;5011725;28;20540;-68
2021/10/20 01:23:46;;;;;;;5.80;3.40;;;11.80;99.90;;;;;;5011485;28;20279;-68
2021/10/20 01:26:12;;;;;;;7.60;3.50;;;11.80;99.90;;;;;;5011586;28;20466;-68
2021/10/20 01:28:37;;;;;;;3.90;3.60;;;11.80;99.90;;;;;;5011464;28;20476;-68
2021/10/20 01:31:03;;;;;;;3.60;3.30;;;11.80;99.90;;;;;;5011617;28;20183;-68
2021/10/20 01:33:29;;;;;;;4.90;3.40;;;12.00;99.90;;;;;;5011538;28;20222;-68
2021/10/20 01:35:54;;;;;;;4.63;3.17;;;12.20;99.90;;;;;;5011203;28;20178;-68
2021/10/20 01:38:20;;;;;;;3.57;3.27;;;12.40;99.90;;;;;;5011425;28;20575;-68
2021/10/20 01:40:45;;;;;;;3.80;3.50;;;12.40;99.90;;;;;;5011778;28;20200;-68
2021/10/20 01:43:11;;;;;;;4.40;3.60;;;12.50;99.90;;;;;;5013890;28;20222;-68
2021/10/20 01:45:36;;;;;;;4.13;3.50;;;12.60;99.90;;;;;;5015061;28;20183;-68
2021/10/20 01:48:02;;;;;;;3.87;3.57;;;12.60;99.90;;;;;;5014574;28;20182;-68
2021/10/20 01:50:28;;;;;;;3.47;3.17;;;12.70;99.90;;;;;;5015216;28;20700;-68
2021/10/20 01:52:53;;;;;;;4.40;4.00;;;12.80;99.90;;;;;;5014927;28;20179;-68
2021/10/20 01:55:19;;;;;;;3.33;3.03;;;12.80;99.90;;;;;;5014585;28;20175;-68
2021/10/20 01:57:45;;;;;;;5.73;3.60;;;12.80;99.90;;;;;;5014856;28;20175;-68
2021/10/20 02:00:11;;;;;;;3.47;3.20;;;12.90;99.90;;;;;;5014852;28;20601;-68
2021/10/20 02:02:37;;;;;;;4.37;3.77;;;13.00;99.90;;;;;;5014754;28;20445;-68
2021/10/20 02:05:07;;;;;;;4.40;3.50;;;12.90;99.90;;;;;;5014648;28;21236;-68
2021/10/20 02:07:33;;;;;;;3.93;3.63;;;12.90;99.90;;;;;;5014711;28;20448;-68
2021/10/20 02:09:58;;;;;;;3.60;3.10;;;13.00;99.90;;;;;;5014482;28;20433;-68
2021/10/20 02:12:24;;;;;;;6.03;4.00;;;12.90;99.90;;;;;;5015102;28;20186;-68
2021/10/20 02:14:49;;;;;;;4.10;3.70;;;12.80;99.90;;;;;;5014592;28;20207;-68
2021/10/20 02:17:15;;;;;;;4.00;3.70;;;12.70;99.90;;;;;;5014295;28;20212;-68
2021/10/20 02:19:40;;;;;;;3.80;3.50;;;12.70;99.90;;;;;;5014796;28;20187;-68
2021/10/20 02:22:06;;;;;;;3.90;3.37;;;12.60;99.90;;;;;;5014386;28;20175;-68
2021/10/20 02:24:32;;;;;;;5.70;5.13;;;12.60;99.90;;;;;;5014462;28;20198;-68
2021/10/20 02:26:58;;;;;;;3.30;3.10;;;12.50;99.90;;;;;;5014302;28;20444;-68
2021/10/20 02:29:23;;;;;;;5.97;3.30;;;12.40;99.90;;;;;;5014007;28;20668;-68
2021/10/20 02:31:49;;;;;;;3.70;3.40;;;12.30;99.90;;;;;;5014049;28;20187;-68
2021/10/20 02:34:19;;;;;;;3.83;3.40;;;12.30;99.90;;;;;;5014038;28;20353;-68
2021/10/20 02:36:45;;;;;;;4.03;3.73;;;12.20;99.90;;;;;;5014274;28;20175;-68
2021/10/20 02:39:11;;;;;;;4.13;3.77;;;12.20;99.90;;;;;;5014376;28;20429;-68
2021/10/20 02:41:36;;;;;;;4.73;3.27;;;12.10;99.90;;;;;;5014296;28;20181;-68
2021/10/20 02:44:02;;;;;;;5.00;3.20;;;12.10;99.90;;;;;;5012750;28;20253;-68
2021/10/20 02:46:29;;;;;;;4.07;3.67;;;12.00;99.90;;;;;;5014076;28;20596;-68
2021/10/20 02:48:55;;;;;;;4.53;3.67;;;11.90;99.90;;;;;;5013803;28;20442;-68
2021/10/20 02:51:20;;;;;;;3.93;3.63;;;11.80;99.90;;;;;;5014091;28;20445;-68
2021/10/20 02:53:46;;;;;;;4.00;3.70;;;11.70;99.90;;;;;;5013248;28;20234;-68
2021/10/20 02:56:14;;;;;;;4.13;3.83;;;11.60;99.90;;;;;;5013767;28;20226;-68
2021/10/20 02:58:39;;;;;;;4.20;3.80;;;11.60;99.90;;;;;;5013460;28;20556;-68
2021/10/20 03:01:05;;;;;;;3.43;3.13;;;11.50;99.90;;;;;;5013341;28;20453;-68
2021/10/20 03:03:30;;;;;;;4.30;3.90;;;11.50;99.90;;;;;;5013431;28;20244;-68
2021/10/20 03:05:56;;;;;;;5.93;3.27;;;11.40;99.90;;;;;;5013809;28;20241;-68
2021/10/20 03:08:21;;;;;;;3.70;3.40;;;11.40;99.90;;;;;;5013392;28;20182;-68
2021/10/20 03:10:47;;;;;;;4.03;3.63;;;11.40;99.90;;;;;;5013538;28;20163;-68
2021/10/20 03:13:12;;;;;;;3.37;3.07;;;11.30;99.90;;;;;;5013183;28;20203;-68
2021/10/20 03:15:38;;;;;;;5.03;3.83;;;11.40;99.90;;;;;;5013557;28;20426;-68
2021/10/20 03:18:04;;;;;;;3.43;3.13;;;11.40;99.90;;;;;;5013018;28;20174;-68
2021/10/20 03:20:29;;;;;;;3.50;3.20;;;11.40;99.90;;;;;;5013232;28;20182;-68
2021/10/20 03:22:55;;;;;;;3.07;2.87;;;11.40;99.90;;;;;;5013450;28;20183;-68
2021/10/20 03:25:21;;;;;;;5.80;3.23;;;11.40;99.90;;;;;;5013367;28;20175;-68
2021/10/20 03:27:48;;;;;;;4.77;3.90;;;11.40;99.90;;;;;;5013155;28;20175;-68
2021/10/20 03:30:17;;;;;;;8.93;3.40;;;11.40;99.90;;;;;;5012118;28;20269;-68
2021/10/20 03:32:43;;;;;;;3.00;2.80;;;11.50;99.90;;;;;;5012914;28;20467;-67
2021/10/20 03:35:11;;;;;;;3.83;3.50;;;11.60;99.90;;;;;;5013171;28;20466;-68
2021/10/20 03:37:37;;;;;;;3.70;3.37;;;11.80;99.90;;;;;;5015329;28;21974;-68
2021/10/20 03:40:04;;;;;;;3.80;3.40;;;12.00;99.90;;;;;;5033105;28;20417;-68
2021/10/20 03:42:30;;;;;;;6.63;3.50;;;12.10;99.90;;;;;;5013640;28;20262;-68
2021/10/20 03:44:56;;;;;;;3.60;3.30;;;12.40;99.90;;;;;;5012777;28;20568;-67
2021/10/20 03:47:21;;;;;;;3.80;3.40;;;12.50;99.90;;;;;;5012428;28;20261;-68
2021/10/20 03:49:48;;;;;;;3.93;3.63;;;12.70;99.90;;;;;;5012888;28;20529;-68
2021/10/20 03:52:14;;;;;;;3.57;3.27;;;12.70;99.90;;;;;;5012644;28;20186;-68
2021/10/20 03:54:40;;;;;;;8.47;3.83;;;12.70;99.90;;;;;;5011772;28;20470;-68
2021/10/20 03:57:05;;;;;;;4.03;3.63;;;12.80;99.90;;;;;;5012696;28;20182;-68
2021/10/20 03:59:31;;;;;;;4.87;3.33;;;12.80;99.90;;;;;;5012542;28;20516;-68
2021/10/20 04:01:56;;;;;;;3.40;3.10;;;12.80;99.90;;;;;;5012612;28;20261;-68
2021/10/20 04:04:22;;;;;;;3.30;3.00;;;12.80;99.90;;;;;;5012422;28;20218;-68
2021/10/20 04:06:47;;;;;;;4.20;3.70;;;12.80;99.90;;;;;;5012511;28;20560;-68
2021/10/20 04:09:13;;;;;;;3.90;2.77;;;12.80;99.90;;;;;;5012374;28;20201;-68
2021/10/20 04:11:38;;;;;;;3.87;3.57;;;12.70;99.90;;;;;;5012620;28;20532;-67
2021/10/20 04:14:04;;;;;;;7.50;3.20;;;12.70;99.90;;;;;;5012625;28;20199;-68
2021/10/20 04:16:30;;;;;;;4.13;3.73;;;12.70;99.90;;;;;;5012428;28;20174;-68
2021/10/20 04:18:55;;;;;;;3.73;3.43;;;12.60;99.90;;;;;;5011985;28;20262;-67
2021/10/20 04:21:21;;;;;;;4.00;3.50;;;12.60;99.90;;;;;;5012517;28;20294;-68
2021/10/20 04:23:46;;;;;;;3.43;3.13;;;12.50;99.90;;;;;;5012383;28;20249;-68
2021/10/20 04:26:12;;;;;;;8.90;3.63;;;12.40;99.90;;;;;;5012245;28;20218;-68
2021/10/20 04:28:37;;;;;;;4.20;3.80;;;12.30;99.90;;;;;;5011945;28;20607;-68
2021/10/20 04:31:03;;;;;;;4.50;3.67;;;12.20;99.90;;;;;;5012011;28;20182;-68
2021/10/20 04:33:28;;;;;;;4.67;3.90;;;12.10;99.90;;;;;;5012208;28;20218;-68
2021/10/20 04:35:54;;;;;;;4.00;3.60;;;12.10;99.90;;;;;;5012143;28;20206;-68
2021/10/20 04:38:20;;;;;;;3.53;2.77;;;11.90;99.90;;;;;;5011965;28;20178;-68
2021/10/20 04:40:45;;;;;;;4.30;3.60;;;11.80;99.90;;;;;;5012269;28;20175;-68
2021/10/20 04:43:11;;;;;;;4.10;3.80;;;11.80;99.90;;;;;;5012131;28;20199;-68
2021/10/20 04:45:36;;;;;;;3.77;3.47;;;11.80;99.90;;;;;;5011937;28;20237;-70
2021/10/20 04:48:02;;;;;;;4.20;3.80;;;11.80;99.90;;;;;;5011297;28;20183;-68
2021/10/20 04:50:28;;;;;;;5.90;4.00;;;11.70;99.90;;;;;;5012025;28;20182;-68
2021/10/20 04:52:53;;;;;;;3.47;3.27;;;11.70;99.90;;;;;;5011955;28;20183;-68
2021/10/20 04:55:19;;;;;;;3.67;3.27;;;11.70;99.90;;;;;;5010561;28;20210;-68
2021/10/20 04:57:51;;;;;;;3.50;2.90;;;11.70;99.90;;;;;;5011711;28;20170;-68
2021/10/20 05:00:19;;;;;;;3.33;3.00;;;11.70;99.90;;;;;;5012091;28;20171;-68
2021/10/20 05:02:44;;;;;;;4.17;3.77;;;11.70;99.90;;;;;;5011621;28;20943;-67
2021/10/20 05:05:10;;;;;;;4.30;3.80;;;11.70;99.90;;;;;;5011883;28;20436;-68
2021/10/20 05:08:05;;;;;;;3.97;3.60;;;11.80;99.90;;;;;;5011646;28;20187;-68
2021/10/20 05:10:30;;;;;;;4.73;3.90;;;11.80;99.90;;;;;;4983080;28;20195;-68
2021/10/20 05:12:56;;;;;;;4.77;3.60;;;11.80;99.90;;;;;;5011664;28;20521;-68
2021/10/20 05:15:22;;;;;;;4.33;3.77;;;11.90;99.90;;;;;;5011690;28;20175;-67
2021/10/20 05:17:47;;;;;;;3.73;3.43;;;12.00;99.90;;;;;;5014944;28;20440;-68
2021/10/20 05:20:15;;;;;;;3.97;3.60;;;12.20;99.90;;;;;;5000905;28;20230;-67
2021/10/20 05:22:41;;;;;;;8.00;4.23;;;12.30;99.90;;;;;;5015375;28;20187;-68
2021/10/20 05:25:11;;;;;;;4.73;3.80;;;12.50;99.90;;;;;;5015426;28;20468;-68
2021/10/20 05:27:37;;;;;;;3.80;3.50;;;12.50;99.90;;;;;;5015265;28;20466;-68
2021/10/20 05:30:03;;;;;;;4.37;3.97;;;12.60;99.90;;;;;;5015423;28;20469;-68
2021/10/20 05:32:30;;;;;;;5.00;3.60;;;12.60;99.90;;;;;;5014957;28;20225;-68
2021/10/20 05:34:55;;;;;;;4.00;3.60;;;12.60;99.90;;;;;;5015037;28;20469;-68
2021/10/20 05:37:22;;;;;;;4.80;4.30;;;12.60;99.90;;;;;;5014737;28;20544;-67
2021/10/20 05:39:48;;;;;;;4.67;4.10;;;12.60;99.90;;;;;;5014793;28;20183;-68
2021/10/20 05:42:15;;;;;;;4.67;4.23;;;12.60;99.90;;;;;;5015340;28;21136;-68
2021/10/20 05:44:40;;;;;;;5.87;3.97;;;12.50;99.90;;;;;;5014721;28;20484;-68
2021/10/20 05:47:06;;;;;;;11.53;6.00;;;12.50;99.90;;;;;;5015252;28;20926;-68
2021/10/20 05:49:31;;;;;;;5.20;4.70;;;12.50;99.90;;;;;;5014417;28;20187;-68
2021/10/20 05:51:57;;;;;;;12.43;4.20;;;12.50;99.90;;;;;;5014611;28;20195;-68
2021/10/20 05:54:23;;;;;;;5.80;4.20;;;12.40;99.90;;;;;;5014875;28;20235;-67
2021/10/20 05:56:49;;;;;;;4.10;3.53;;;12.30;99.90;;;;;;5014670;28;21002;-68
2021/10/20 05:59:14;;;;;;;4.10;3.50;;;12.20;99.90;;;;;;5014545;28;20265;-68
2021/10/20 06:01:40;;;;;;;4.63;3.90;;;12.20;99.90;;;;;;5014276;28;20229;-68
2021/10/20 06:04:06;;;;;;;7.27;4.50;;;12.20;99.90;;;;;;5014551;28;20358;-68
2021/10/20 06:06:31;;;;;;;5.07;4.60;;;12.10;99.90;;;;;;5014427;28;20644;-68
2021/10/20 06:08:57;;;;;;;4.83;3.90;;;12.00;99.90;;;;;;5012692;28;20441;-68
2021/10/20 06:11:23;;;;;;;4.33;3.93;;;11.90;99.90;;;;;;5014448;28;20207;-67
2021/10/20 06:13:48;;;;;;;5.30;3.93;;;11.90;99.90;;;;;;5013953;28;20843;-68
2021/10/20 06:16:14;;;;;;;4.73;4.07;;;11.90;99.90;;;;;;5014587;28;20186;-67
2021/10/20 06:18:40;;;;;;;5.13;4.73;;;12.00;99.90;;;;;;5012883;28;20244;-67
2021/10/20 06:21:05;;;;;;;5.17;4.30;;;12.00;99.90;;;;;;5019035;28;20269;-67
2021/10/20 06:23:32;;;;;;;5.90;4.30;;;12.30;99.90;;;;;;5005480;28;21026;-68
2021/10/20 06:25:58;;;;;;;5.87;5.00;;;12.40;99.90;;;;;;4986417;28;20688;-66
2021/10/20 06:28:24;;;;;;;7.07;4.90;;;12.50;99.90;;;;;;5006359;28;20441;-67
2021/10/20 06:30:50;;;;;;;7.10;5.50;;;12.70;99.90;;;;;;5014191;28;20504;-68
2021/10/20 06:33:16;;;;;;;5.00;4.00;;;12.90;99.90;;;;;;5013286;28;20460;-67
2021/10/20 06:35:42;;;;;;;8.17;4.17;;;13.20;99.90;;;;;;5012325;28;20206;-68
2021/10/20 06:38:07;;;;;;;5.73;4.17;;;13.40;99.90;;;;;;5012916;28;20191;-67
2021/10/20 06:40:33;;;;;;;5.10;4.50;;;13.60;99.90;;;;;;5014090;28;20191;-67
2021/10/20 06:42:59;;;;;;;5.80;4.77;;;13.70;99.90;;;;;;5029447;28;20185;-67
2021/10/20 06:45:25;;;;;;;6.00;4.27;;;14.00;99.90;;;;;;5011060;28;20224;-67
2021/10/20 06:47:51;;;;;;;4.53;4.13;;;14.20;99.90;;;;;;5014017;28;20901;-67
2021/10/20 06:50:18;;;;;;;8.57;6.80;;;14.40;99.90;;;;;;5014293;28;20171;-67
2021/10/20 06:52:44;;;;;;;6.50;4.63;;;14.50;99.90;;;;;;5013855;28;20564;-67
2021/10/20 06:55:11;;;;;;;4.93;4.40;;;14.70;99.90;;;;;;5010463;28;20462;-67
2021/10/20 06:57:37;;;;;;;4.50;4.10;;;15.00;99.90;;;;;;5013433;28;20429;-67
2021/10/20 07:00:05;;;;;;;8.27;5.27;;;15.20;99.90;;;;;;5013697;28;20989;-69
2021/10/20 07:02:30;;;;;;;5.07;4.20;;;15.50;99.90;;;;;;5013371;28;20204;-68
2021/10/20 07:04:56;;;;;;;8.50;5.37;;;15.80;99.90;;;;;;5010354;28;20531;-67
2021/10/20 07:07:22;;;;;;;5.33;4.37;;;15.90;99.90;;;;;;5013557;28;20198;-67
2021/10/20 07:09:47;;;;;;;5.50;3.93;;;16.10;99.90;;;;;;5013581;28;20293;-67
2021/10/20 07:12:13;;;;;;;5.17;4.17;;;16.30;99.90;;;;;;5013564;28;20179;-68
2021/10/20 07:14:38;;;;;;;4.90;4.13;;;16.40;99.90;;;;;;5009789;28;20211;-68
2021/10/20 07:17:08;;;;;;;4.40;4.00;;;16.50;99.90;;;;;;5013352;28;20175;-68
2021/10/20 07:19:35;;;;;;;4.53;4.10;;;16.60;99.90;;;;;;5013124;28;20183;-67
2021/10/20 07:22:00;;;;;;;7.33;4.80;;;16.90;99.90;;;;;;5013309;28;20430;-69
2021/10/20 07:24:26;;;;;;;7.73;4.57;;;17.30;99.90;;;;;;5009962;28;20507;-69
2021/10/20 07:26:52;;;;;;;9.00;4.13;;;17.60;99.90;;;;;;5013196;28;20179;-66
2021/10/20 07:29:17;;;;;;;5.90;5.43;;;17.90;99.90;;;;;;5013196;28;20455;-67
2021/10/20 07:31:43;;;;;;;6.37;5.20;;;17.90;99.90;;;;;;5013481;28;20174;-68
2021/10/20 07:34:09;;;;;;;5.63;4.33;;;17.80;99.90;;;;;;5008905;28;20202;-67
2021/10/20 07:36:36;;;;;;;7.23;5.00;;;18.00;99.90;;;;;;5013291;28;20185;-66
2021/10/20 07:39:02;;;;;;;8.87;5.50;;;18.00;99.90;;;;;;5012841;28;20640;-67
2021/10/20 07:41:28;;;;;;;4.33;3.90;;;18.20;99.90;;;;;;5012641;28;20414;-67
2021/10/20 07:43:54;;;;;;;9.07;4.70;;;18.60;99.90;;;;;;5009890;28;20803;-67
2021/10/20 07:46:19;;;;;;;4.47;4.07;;;19.10;99.90;;;;;;5013254;28;20179;-67
2021/10/20 07:48:45;;;;;;;4.93;4.43;;;19.10;99.90;;;;;;5012917;28;20178;-67
2021/10/20 07:51:10;;;;;;;5.20;3.83;;;19.30;99.90;;;;;;5012762;28;20178;-67
2021/10/20 07:53:36;;;;;;;5.80;3.60;;;19.10;99.90;;;;;;5009790;28;20222;-67
2021/10/20 07:56:01;;;;;;;7.33;3.97;;;18.80;99.90;;;;;;5013155;28;20249;-67
2021/10/20 07:58:27;;;;;;;5.53;4.27;;;18.70;99.90;;;;;;5012756;28;20171;-67
2021/10/20 08:00:52;;;;;;;5.60;4.30;;;18.50;99.90;;;;;;5013003;28;20171;-67
2021/10/20 08:03:18;;;;;;;5.70;4.73;;;18.50;99.90;;;;;;5010622;28;20210;-67
2021/10/20 08:05:43;;;;;;;6.33;3.63;;;18.80;99.90;;;;;;5011755;28;20171;-67
2021/10/20 08:08:10;;;;;;;4.33;3.93;;;18.90;99.90;;;;;;5012629;28;20168;-67
2021/10/20 08:10:36;;;;;;;5.20;3.90;;;19.00;99.90;;;;;;5012958;28;20250;-67
2021/10/20 08:13:02;;;;;;;4.20;3.90;;;19.30;99.90;;;;;;5012339;28;20476;-67
2021/10/20 08:15:28;;;;;;;4.90;3.57;;;19.70;99.90;;;;;;5009381;28;20485;-67
2021/10/20 08:17:56;;;;;;;4.77;3.80;;;19.80;99.90;;;;;;5012540;28;20456;-67
2021/10/20 08:20:23;;;;;;;6.60;3.73;;;20.00;99.30;;;;;;5012864;28;20936;-68
2021/10/20 08:22:49;;;;;;;3.23;3.03;;;20.30;98.90;;;;;;5012666;28;21005;-67
2021/10/20 08:25:16;;;;;;;5.80;3.97;;;20.90;97.80;;;;;;5009107;28;20501;-68
2021/10/20 08:27:43;;;;;;;3.60;3.20;;;20.90;96.60;;;;;;5012460;28;20806;-67
2021/10/20 08:30:16;;;;;;;9.10;3.93;;;20.90;96.00;;;;;;5012569;28;20510;-68
2021/10/20 08:32:42;;;;;;;8.53;3.47;;;21.00;95.70;;;;;;5012220;28;20437;-68
2021/10/20 08:35:08;;;;;;;3.90;3.40;;;21.40;95.30;;;;;;5006812;28;20488;-67
2021/10/20 08:37:34;;;;;;;5.47;3.77;;;21.30;95.00;;;;;;5000490;28;20434;-68
2021/10/20 08:39:59;;;;;;;3.53;3.30;;;21.30;94.90;;;;;;5003506;28;20187;-68
2021/10/20 08:42:25;;;;;;;6.33;3.67;;;20.70;95.20;;;;;;5009196;28;20194;-68
2021/10/20 08:44:51;;;;;;;6.87;4.47;;;20.50;96.40;;;;;;5005625;28;20199;-68
2021/10/20 08:47:18;;;;;;;4.03;3.73;;;20.80;96.10;;;;;;5007401;28;20409;-67
2021/10/20 08:49:44;;;;;;;4.53;4.13;;;20.80;95.80;;;;;;5009179;28;20245;-67
2021/10/20 08:52:10;;;;;;;4.20;3.63;;;20.70;95.90;;;;;;5008796;28;20420;-67
2021/10/20 08:54:36;;;;;;;4.03;3.73;;;20.90;95.80;;;;;;5005608;28;20461;-68
2021/10/20 08:57:03;;;;;;;3.77;3.47;;;20.80;96.20;;;;;;5008500;28;20249;-68
2021/10/20 08:59:29;;;;;;;3.80;3.50;;;21.50;94.90;;;;;;5008727;28;20509;-68
2021/10/20 09:01:54;;;;;;;4.37;3.80;;;21.50;94.90;;;;;;5009205;28;20432;-68
2021/10/20 09:04:22;;;;;;;5.63;3.50;;;21.30;95.30;;;;;;5004132;28;20718;-68
2021/10/20 09:06:47;;;;;;;4.30;3.90;;;21.50;94.80;;;;;;5008633;28;20939;-69
2021/10/20 09:09:14;;;;;;;3.80;3.50;;;22.10;94.50;;;;;;5008741;28;20425;-69
2021/10/20 09:11:41;;;;;;;4.90;3.30;;;22.70;93.50;;;;;;5009087;28;20167;-69
2021/10/20 09:14:12;;;;;;;3.60;3.30;;;22.70;92.90;;;;;;5005464;28;20496;-69
2021/10/20 09:16:40;;;;;;;3.37;3.00;;;22.60;92.70;;;;;;5008875;28;20453;-68
2021/10/20 09:19:24;;;;;;;3.83;3.53;;;22.10;93.70;;;;;;5008552;28;20445;-69
2021/10/20 09:21:57;;;;;;;4.40;3.73;;;22.40;93.60;;;;;;5008967;28;20795;-68
2021/10/20 09:24:44;;;;;;;3.90;3.60;;;22.40;93.30;;;;;;5005307;28;20453;-69
2021/10/20 09:27:24;;;;;;;4.33;4.03;;;21.90;93.50;;;;;;5008578;28;21146;-68
2021/10/20 09:30:07;;;;;;;3.90;3.60;;;21.50;94.10;;;;;;5008663;28;20426;-68
2021/10/20 09:32:33;;;;;;;4.00;3.40;;;20.80;95.10;;;;;;5008844;28;21035;-67
2021/10/20 09:34:58;;;;;;;4.07;3.63;;;20.50;95.90;;;;;;5005252;28;20465;-69
2021/10/20 09:37:27;;;;;;;6.07;3.77;;;20.40;96.00;;;;;;5008517;28;20444;-68
2021/10/20 09:40:04;;;;;;;5.23;3.20;;;20.80;96.40;;;;;;5008648;28;20171;-69
2021/10/20 09:42:41;;;;;;;3.53;3.33;;;21.70;95.60;;;;;;5008614;28;20500;-69
2021/10/20 09:45:07;;;;;;;4.00;3.17;;;22.50;94.30;;;;;;5004767;28;20425;-69
2021/10/20 09:47:32;;;;;;;4.23;3.57;;;24.10;92.80;;;;;;5007880;28;20417;-68
2021/10/20 09:49:58;;;;;;;3.43;3.13;;;24.40;91.40;;;;;;5008624;28;20233;-70
2021/10/20 09:52:25;;;;;;;4.37;3.97;;;24.80;90.90;;;;;;5008780;28;20179;-69
2021/10/20 09:54:51;;;;;;;4.87;4.43;;;25.90;87.90;;;;;;5004848;28;20565;-69
2021/10/20 09:57:17;;;;;;;6.80;6.20;;;26.10;86.40;;;;;;5008164;28;20467;-69
2021/10/20 09:59:44;;;;;;;4.83;3.93;;;26.30;83.90;;;;;;5008297;28;20203;-69
2021/10/20 10:02:10;;;;;;;3.40;3.17;;;26.40;82.30;;;;;;5008790;28;20453;-69
2021/10/20 10:04:40;;;;;;;3.53;3.27;;;25.90;82.10;;;;;;5008166;28;20985;-70
2021/10/20 10:07:06;;;;;;;4.77;3.20;;;25.60;82.00;;;;;;5011943;28;20453;-69
2021/10/20 10:09:32;;;;;;;6.63;3.87;;;24.90;83.60;;;;;;5011571;28;20431;-70
2021/10/20 10:12:03;;;;;;;4.20;3.80;;;25.10;82.50;;;;;;5010314;28;20521;-69
2021/10/20 10:14:34;;;;;;;9.37;4.00;;;25.10;82.50;;;;;;5007824;28;20203;-69
2021/10/20 10:17:02;;;;;;;4.77;3.43;;;25.20;82.20;;;;;;5011718;28;20421;-69
2021/10/20 10:19:31;;;;;;;4.60;3.40;;;25.20;83.10;;;;;;5011095;28;20427;-69
2021/10/20 10:21:58;;;;;;;8.70;3.67;;;24.50;83.70;;;;;;5011529;28;20426;-69
2021/10/20 10:24:32;;;;;;;5.50;4.53;;;24.70;84.90;;;;;;5007954;28;20489;-69
2021/10/20 10:27:07;;;;;;;3.83;3.43;;;24.90;84.40;;;;;;5011243;28;20424;-72
2021/10/20 10:29:45;;;;;;;5.03;3.73;;;25.20;83.30;;;;;;5011339;28;20421;-73
2021/10/20 10:32:10;;;;;;;8.50;3.10;;;25.50;83.00;;;;;;5011529;28;20423;-71
2021/10/20 10:34:50;;;;;;;2.93;2.70;;;24.90;83.40;;;;;;5008678;28;20461;-70
2021/10/20 10:37:31;;;;;;;6.40;2.83;;;24.90;83.00;;;;;;5011393;28;20767;-69
2021/10/20 10:40:01;;;;;;;4.10;3.63;;;25.20;82.40;;;;;;5011227;28;20421;-69
2021/10/20 10:42:32;;;;;;;3.30;3.00;;;24.20;84.10;;;;;;5011596;28;20492;-69
2021/10/20 10:45:10;;;;;;;3.43;3.13;;;23.90;85.60;;;;;;5007958;28;20503;-70
2021/10/20 10:47:53;;;;;;;4.17;2.83;;;24.00;85.80;;;;;;5010856;28;20849;-69
2021/10/20 10:50:18;;;;;;;4.23;3.73;;;24.50;84.50;;;;;;5011323;28;20428;-69
2021/10/20 10:52:45;;;;;;;3.83;3.27;;;24.40;84.20;;;;;;5010952;28;20433;-69
2021/10/20 10:55:20;;;;;;;3.17;2.93;;;24.20;84.50;;;;;;5007320;28;20199;-69
2021/10/20 10:57:55;;;;;;;3.33;3.13;;;24.50;84.20;;;;;;5010784;28;21006;-69
2021/10/20 11:00:20;;;;;;;5.03;3.13;;;25.90;82.10;;;;;;5011131;28;20421;-69
2021/10/20 11:02:50;;;;;;;3.33;3.03;;;25.80;79.90;;;;;;5010808;28;20436;-69
2021/10/20 11:05:31;;;;;;;3.70;3.30;;;25.20;82.20;;;;;;5007758;28;20919;-69
2021/10/20 11:08:01;;;;;;;3.60;3.07;;;25.20;83.50;;;;;;5010601;28;20450;-69
2021/10/20 11:10:28;;;;;;;3.63;3.33;;;25.70;82.80;;;;;;5009599;28;20466;-69
2021/10/20 11:12:57;;;;;;;6.43;3.83;;;26.20;81.60;;;;;;5010558;28;21232;-69
2021/10/20 11:15:24;;;;;;;3.37;2.97;;;26.00;80.40;;;;;;5007189;28;20484;-69
2021/10/20 11:17:49;;;;;;;3.30;3.00;;;25.70;81.00;;;;;;5010385;28;20421;-69
2021/10/20 11:20:17;;;;;;;3.07;2.80;;;26.70;80.60;;;;;;5010700;28;20971;-69
2021/10/20 11:22:52;;;;;;;4.03;3.60;;;27.60;77.10;;;;;;5010548;28;20175;-70
2021/10/20 11:25:18;;;;;;;4.83;2.83;;;28.60;75.40;;;;;;5006978;28;20444;-70
2021/10/20 11:27:48;;;;;;;6.00;3.20;;;29.40;72.50;;;;;;5010067;28;20430;-70
2021/10/20 11:30:16;;;;;;;3.40;3.10;;;29.70;69.50;;;;;;5010413;28;20426;-70
2021/10/20 11:32:43;;;;;;;3.60;2.93;;;29.70;69.50;;;;;;5010362;28;20436;-69
2021/10/20 11:35:15;;;;;;;3.00;2.70;;;28.60;68.90;;;;;;5007092;28;21013;-70
2021/10/20 11:37:40;;;;;;;3.20;2.90;;;28.40;69.20;;;;;;5009912;28;21251;-69
2021/10/20 11:40:07;;;;;;;2.70;2.50;;;29.00;68.90;;;;;;5010179;28;20533;-69
2021/10/20 11:42:32;;;;;;;5.70;2.70;;;29.30;67.80;;;;;;5010312;28;20210;-70
2021/10/20 11:45:04;;;;;;;2.73;2.50;;;28.50;68.00;;;;;;5006439;28;20477;-70
2021/10/20 11:47:31;;;;;;;2.90;2.57;;;28.40;69.00;;;;;;5009793;28;20183;-70
2021/10/20 11:49:57;;;;;;;2.97;2.67;;;29.30;68.70;;;;;;5010047;28;20426;-69
2021/10/20 11:52:25;;;;;;;2.77;2.57;;;30.90;64.60;;;;;;5009976;28;20426;-70
2021/10/20 11:54:55;;;;;;;2.90;2.70;;;31.00;63.00;;;;;;5006702;28;20888;-70
2021/10/20 11:57:21;;;;;;;3.40;3.10;;;31.10;61.50;;;;;;5009695;28;20446;-70
2021/10/20 11:59:48;;;;;;;3.63;2.90;;;30.50;62.40;;;;;;5008421;28;20993;-70
2021/10/20 12:02:15;;;;;;;9.90;4.13;;;30.00;63.00;;;;;;5009873;28;20437;-69
2021/10/20 12:04:42;;;;;;;7.80;3.27;;;28.50;65.90;;;;;;5006550;28;21302;-70
2021/10/20 12:07:10;;;;;;;2.80;2.60;;;26.80;68.00;;;;;;5009659;28;20816;-69
2021/10/20 12:09:41;;;;;;;3.27;3.07;;;25.20;72.20;;;;;;5009596;28;20463;-69
2021/10/20 12:12:08;;;;;;;2.77;2.50;;;24.20;75.80;;;;;;5009740;28;20432;-69
2021/10/20 12:14:36;;;;;;;3.73;3.47;;;23.70;78.10;;;;;;5006381;28;20591;-69
2021/10/20 12:17:03;;;;;;;4.70;3.27;;;23.40;80.20;;;;;;5009774;28;20426;-70
2021/10/20 12:19:34;;;;;;;5.47;3.33;;;23.30;81.70;;;;;;5009205;28;20430;-69
2021/10/20 12:22:03;;;;;;;3.10;2.80;;;23.30;81.70;;;;;;5009452;28;20425;-69
2021/10/20 12:24:42;;;;;;;3.13;2.87;;;24.70;80.40;;;;;;5006041;28;20456;-69
2021/10/20 12:27:09;;;;;;;3.63;2.53;;;27.40;74.80;;;;;;5009144;28;20429;-69
2021/10/20 12:29:44;;;;;;;2.63;2.43;;;28.90;70.40;;;;;;5009087;28;20564;-69
2021/10/20 12:32:17;;;;;;;2.90;2.60;;;28.20;69.80;;;;;;5009231;28;20464;-69
2021/10/20 12:35:08;;;;;;;2.93;2.73;;;27.30;71.30;;;;;;5005829;28;20469;-71
2021/10/20 12:37:36;;;;;;;3.43;3.23;;;26.50;72.60;;;;;;5009134;28;20825;-70
2021/10/20 12:40:12;;;;;;;3.33;3.03;;;26.00;74.30;;;;;;5007113;28;20473;-70
2021/10/20 12:42:56;;;;;;;7.57;3.50;;;24.90;76.60;;;;;;4989263;28;20410;-70
2021/10/20 12:45:23;;;;;;;6.00;3.00;;;24.20;79.20;;;;;;5004623;28;20487;-69
2021/10/20 12:47:57;;;;;;;3.50;3.30;;;23.60;82.00;;;;;;5008958;28;20795;-70